Time;durP1;ratioP1;P1;durP2;ratioP2;P2;SDS_P1;SDS_P2;PMS_P1;PMS_P2;Temp;Humidity;BMP_temperature;BMP_pressure;BME280_temperature;BME280_humidity;BME280_pressure;Samples;Min_cycle;Max_cycle;Signal;HPM_P1;HPM_P2
2022/12/30 00:01:54;;;;;;;2.17;2.08;;;;;;;;;;5068658;28;20504;-87
2022/12/30 00:04:22;;;;;;;1.45;1.40;;;;;;;;;;5048347;28;20036;-88
2022/12/30 00:06:50;;;;;;;2.63;2.42;;;;;;;;;;5049425;28;20504;-87
2022/12/30 00:09:18;;;;;;;1.88;1.75;;;;;;;;;;5031028;28;20060;-87
2022/12/30 00:11:46;;;;;;;2.88;1.67;;;;;;;;;;5068535;28;20044;-87
2022/12/30 00:33:51;;;;;;;2.17;1.92;;;;;;;;;;5067046;28;20044;-87
2022/12/30 00:36:26;;;;;;;1.77;1.67;;;;;;;;;;5069432;28;20519;-87
2022/12/30 00:38:54;;;;;;;5.40;2.47;;;;;;;;;;5050187;28;20048;-87
2022/12/30 00:44:09;;;;;;;2.25;1.52;;;;;;;;;;5067941;28;20048;-88
2022/12/30 00:46:38;;;;;;;1.23;1.15;;;;;;;;;;5051337;28;20511;-87
2022/12/30 00:57:26;;;;;;;2.13;1.92;;;;;;;;;;5067525;28;20055;-88
2022/12/30 00:59:54;;;;;;;2.83;1.88;;;;;;;;;;5069097;28;20059;-86
2022/12/30 01:02:22;;;;;;;1.73;1.63;;;;;;;;;;5067331;28;20526;-86
2022/12/30 01:04:51;;;;;;;2.03;1.77;;;;;;;;;;5050705;28;20071;-86
2022/12/30 01:07:18;;;;;;;1.50;1.30;;;;;;;;;;5066706;28;20055;-86
2022/12/30 01:09:46;;;;;;;1.60;1.30;;;;;;;;;;5067615;28;20492;-87
2022/12/30 01:12:14;;;;;;;2.15;2.00;;;;;;;;;;5067018;28;20049;-87
2022/12/30 01:14:43;;;;;;;1.38;1.27;;;;;;;;;;5069052;28;20040;-86
2022/12/30 01:17:12;;;;;;;2.08;1.58;;;;;;;;;;5066876;28;20044;-87
2022/12/30 01:19:40;;;;;;;1.95;1.38;;;;;;;;;;5050463;28;20041;-84
2022/12/30 01:22:09;;;;;;;1.23;1.13;;;;;;;;;;5065598;28;20059;-85
2022/12/30 01:24:37;;;;;;;1.48;0.70;;;;;;;;;;5066735;28;20426;-87
2022/12/30 01:27:05;;;;;;;0.88;0.88;;;;;;;;;;5065843;28;20055;-86
2022/12/30 01:29:36;;;;;;;0.82;0.82;;;;;;;;;;5068340;28;20040;-87
2022/12/30 01:32:06;;;;;;;0.52;0.52;;;;;;;;;;5050550;28;20546;-87
2022/12/30 01:34:35;;;;;;;0.90;0.90;;;;;;;;;;5050491;28;20391;-86
2022/12/30 01:37:10;;;;;;;0.60;0.60;;;;;;;;;;5032774;28;20048;-86
2022/12/30 01:39:38;;;;;;;0.77;0.77;;;;;;;;;;5068738;28;20045;-86
2022/12/30 01:42:16;;;;;;;0.77;0.77;;;;;;;;;;5066994;28;20053;-84
2022/12/30 01:44:51;;;;;;;0.68;0.68;;;;;;;;;;5067674;28;20037;-86
2022/12/30 01:47:22;;;;;;;0.50;0.50;;;;;;;;;;5067252;28;20048;-85
2022/12/30 01:49:52;;;;;;;0.60;0.60;;;;;;;;;;5049945;28;20052;-87
2022/12/30 01:52:23;;;;;;;0.63;0.63;;;;;;;;;;5065611;28;20032;-86
2022/12/30 01:54:51;;;;;;;0.60;0.60;;;;;;;;;;5067324;28;20044;-85
2022/12/30 01:57:19;;;;;;;0.50;0.50;;;;;;;;;;5049827;28;20044;-85
2022/12/30 01:59:48;;;;;;;0.82;0.82;;;;;;;;;;5067082;28;20052;-87
2022/12/30 02:02:16;;;;;;;1.95;0.70;;;;;;;;;;5068569;28;20056;-82
2022/12/30 02:04:44;;;;;;;0.77;0.77;;;;;;;;;;5046658;28;20049;-80
2022/12/30 02:07:17;;;;;;;0.68;0.68;;;;;;;;;;5046010;28;20045;-83
2022/12/30 02:09:45;;;;;;;0.80;0.80;;;;;;;;;;5046828;28;20475;-84
2022/12/30 02:12:14;;;;;;;0.60;0.60;;;;;;;;;;5045872;28;20056;-84
2022/12/30 02:14:42;;;;;;;0.70;0.70;;;;;;;;;;5047361;28;20048;-82
2022/12/30 02:17:29;;;;;;;0.70;0.70;;;;;;;;;;5046637;28;20531;-85
2022/12/30 02:20:00;;;;;;;1.35;1.25;;;;;;;;;;5050959;28;20051;-81
2022/12/30 02:22:51;;;;;;;0.90;0.90;;;;;;;;;;5065868;28;20044;-83
2022/12/30 02:25:32;;;;;;;0.80;0.80;;;;;;;;;;5030407;28;20115;-86
2022/12/30 02:28:18;;;;;;;0.70;0.70;;;;;;;;;;5066683;28;20049;-84
2022/12/30 02:30:48;;;;;;;0.60;0.60;;;;;;;;;;5067479;28;20127;-81
2022/12/30 02:33:27;;;;;;;0.80;0.80;;;;;;;;;;5067672;28;20041;-85
2022/12/30 02:36:08;;;;;;;0.85;0.85;;;;;;;;;;5049450;28;20060;-86
2022/12/30 02:38:51;;;;;;;0.70;0.70;;;;;;;;;;5033543;28;20044;-86
2022/12/30 02:47:07;;;;;;;1.15;1.15;;;;;;;;;;5067967;28;20044;-85
2022/12/30 02:49:35;;;;;;;;;;;;;;;;;;5048886;28;20760;-84
2022/12/30 02:52:15;;;;;;;0.70;0.70;;;;;;;;;;5066313;28;19920;-85
2022/12/30 02:54:44;;;;;;;2.33;0.80;;;;;;;;;;5067314;28;20063;-85
2022/12/30 02:57:26;;;;;;;0.77;0.77;;;;;;;;;;5068585;28;20411;-85
2022/12/30 03:05:56;;;;;;;0.70;0.70;;;;;;;;;;5066301;28;20056;-86
2022/12/30 03:08:24;;;;;;;0.80;0.80;;;;;;;;;;5045612;28;20044;-85
2022/12/30 03:13:52;;;;;;;0.70;0.70;;;;;;;;;;5052747;28;20044;-85
2022/12/30 03:16:20;;;;;;;;;;;;;;;;;;5069524;28;20045;-86
2022/12/30 03:18:48;;;;;;;0.90;0.90;;;;;;;;;;5053084;28;19924;-86
2022/12/30 03:21:17;;;;;;;1.00;1.00;;;;;;;;;;5068437;28;20052;-86
2022/12/30 03:29:27;;;;;;;0.63;0.63;;;;;;;;;;5070593;28;20589;-86
2022/12/30 03:31:55;;;;;;;0.65;0.65;;;;;;;;;;5068916;28;20063;-85
2022/12/30 03:34:27;;;;;;;0.70;0.70;;;;;;;;;;5063927;28;20664;-86
2022/12/30 03:36:55;;;;;;;;;;;;;;;;;;5048529;28;20052;-87
2022/12/30 03:39:30;;;;;;;0.70;0.70;;;;;;;;;;5041183;28;19944;-86
2022/12/30 03:41:58;;;;;;;0.88;0.88;;;;;;;;;;5031973;28;20048;-87
2022/12/30 03:44:26;;;;;;;0.82;0.82;;;;;;;;;;5050284;28;20041;-87
2022/12/30 03:46:54;;;;;;;0.95;0.70;;;;;;;;;;5048934;28;20049;-86
2022/12/30 03:49:22;;;;;;;0.65;0.65;;;;;;;;;;5031123;28;20044;-87
2022/12/30 03:51:50;;;;;;;0.70;0.70;;;;;;;;;;5047759;28;20393;-86
2022/12/30 03:54:18;;;;;;;0.68;0.68;;;;;;;;;;5046833;28;20045;-86
2022/12/30 03:56:46;;;;;;;1.15;1.05;;;;;;;;;;5048609;28;20049;-87
2022/12/30 03:59:14;;;;;;;0.68;0.68;;;;;;;;;;5047572;28;20056;-86
2022/12/30 04:01:42;;;;;;;1.15;1.15;;;;;;;;;;5049600;28;20033;-87
2022/12/30 04:04:10;;;;;;;0.65;0.63;;;;;;;;;;5031778;28;20460;-86
2022/12/30 04:06:38;;;;;;;0.50;0.50;;;;;;;;;;5062175;28;20659;-87
2022/12/30 04:09:06;;;;;;;1.48;0.60;;;;;;;;;;5067983;28;20691;-87
2022/12/30 04:11:35;;;;;;;0.73;0.73;;;;;;;;;;5051917;28;20462;-87
2022/12/30 04:14:03;;;;;;;0.60;0.60;;;;;;;;;;5068383;28;20044;-86
2022/12/30 04:16:31;;;;;;;0.70;0.70;;;;;;;;;;5069349;28;20048;-87
2022/12/30 04:18:59;;;;;;;0.88;0.88;;;;;;;;;;5069122;28;20052;-88
2022/12/30 04:21:27;;;;;;;0.82;0.80;;;;;;;;;;5067204;28;20048;-87
2022/12/30 04:23:56;;;;;;;1.23;1.20;;;;;;;;;;5066742;28;20427;-88
2022/12/30 04:26:24;;;;;;;1.23;1.23;;;;;;;;;;5050206;28;20048;-88
2022/12/30 04:28:55;;;;;;;0.73;0.73;;;;;;;;;;5051160;28;20044;-88
2022/12/30 04:31:23;;;;;;;0.70;0.70;;;;;;;;;;5036730;22;20300;-87
2022/12/30 04:33:52;;;;;;;1.73;1.63;;;;;;;;;;5010490;28;20057;-87
2022/12/30 04:36:21;;;;;;;2.15;0.93;;;;;;;;;;5009827;28;20437;-87
2022/12/30 04:38:49;;;;;;;0.80;0.80;;;;;;;;;;4999243;28;20049;-87
2022/12/30 04:41:20;;;;;;;0.77;0.77;;;;;;;;;;4995369;28;20049;-87
2022/12/30 04:43:48;;;;;;;17.25;3.40;;;;;;;;;;5011733;28;20587;-87
2022/12/30 04:46:16;;;;;;;1.55;1.05;;;;;;;;;;5026454;28;20444;-87
2022/12/30 04:48:44;;;;;;;0.75;0.75;;;;;;;;;;5011072;28;20404;-87
2022/12/30 04:51:17;;;;;;;2.35;0.70;;;;;;;;;;5028762;28;20509;-87
2022/12/30 04:53:45;;;;;;;5.32;1.00;;;;;;;;;;5027192;28;20045;-88
2022/12/30 04:56:13;;;;;;;0.77;0.77;;;;;;;;;;5028760;28;20061;-88
2022/12/30 04:58:41;;;;;;;0.80;0.80;;;;;;;;;;4979184;28;20053;-88
2022/12/30 05:01:09;;;;;;;1.13;1.13;;;;;;;;;;5028001;28;20058;-87
2022/12/30 05:03:37;;;;;;;1.17;1.13;;;;;;;;;;5027804;28;20049;-87
2022/12/30 05:06:07;;;;;;;0.77;0.77;;;;;;;;;;5028661;28;20045;-87
2022/12/30 05:08:35;;;;;;;0.63;0.63;;;;;;;;;;4993398;28;20513;-87
2022/12/30 05:11:03;;;;;;;0.75;0.75;;;;;;;;;;4995093;28;20049;-87
2022/12/30 05:13:31;;;;;;;0.68;0.68;;;;;;;;;;5028718;28;20423;-87
2022/12/30 05:15:59;;;;;;;1.60;0.80;;;;;;;;;;5004189;28;20056;-88
2022/12/30 05:18:27;;;;;;;0.95;0.95;;;;;;;;;;5010745;28;20057;-87
2022/12/30 05:20:55;;;;;;;2.45;0.75;;;;;;;;;;5006038;28;20045;-87
2022/12/30 05:26:14;;;;;;;0.82;0.82;;;;;;;;;;5020435;28;20573;-87
2022/12/30 05:28:43;;;;;;;2.90;1.27;;;;;;;;;;5029422;28;20056;-87
2022/12/30 05:31:12;;;;;;;0.70;0.70;;;;;;;;;;5047216;28;20059;-87
2022/12/30 05:33:41;;;;;;;4.82;1.15;;;;;;;;;;5013895;28;20080;-88
2022/12/30 05:36:13;;;;;;;0.90;0.90;;;;;;;;;;5010636;28;20057;-87
2022/12/30 05:38:41;;;;;;;0.85;0.85;;;;;;;;;;5009118;28;20049;-87
2022/12/30 05:41:10;;;;;;;1.58;1.20;;;;;;;;;;5026121;28;20045;-87
2022/12/30 05:43:47;;;;;;;1.40;1.30;;;;;;;;;;5011199;28;20049;-88
2022/12/30 05:46:16;;;;;;;1.08;0.98;;;;;;;;;;5009526;28;20053;-87
2022/12/30 05:48:44;;;;;;;1.23;1.05;;;;;;;;;;5027146;28;20072;-88
2022/12/30 05:51:12;;;;;;;0.93;0.93;;;;;;;;;;5010079;28;20049;-87
2022/12/30 05:53:40;;;;;;;1.05;1.00;;;;;;;;;;5024180;28;20057;-87
2022/12/30 05:56:08;;;;;;;1.15;1.15;;;;;;;;;;5027684;28;20049;-87
2022/12/30 05:58:35;;;;;;;2.35;2.15;;;;;;;;;;5010350;28;20057;-87
2022/12/30 06:01:03;;;;;;;0.80;0.80;;;;;;;;;;4993637;28;20544;-86
2022/12/30 06:03:31;;;;;;;0.80;0.80;;;;;;;;;;5026984;28;20492;-87
2022/12/30 06:06:01;;;;;;;0.88;0.88;;;;;;;;;;5025879;28;20045;-87
2022/12/30 06:08:29;;;;;;;2.00;0.70;;;;;;;;;;5008763;28;20042;-87
2022/12/30 06:10:57;;;;;;;1.63;0.93;;;;;;;;;;4994188;28;20049;-87
2022/12/30 06:13:24;;;;;;;1.98;1.00;;;;;;;;;;4993218;28;20046;-87
2022/12/30 06:15:52;;;;;;;1.00;1.00;;;;;;;;;;5010510;28;20050;-86
2022/12/30 06:18:20;;;;;;;0.70;0.70;;;;;;;;;;5027206;28;20056;-87
2022/12/30 06:20:48;;;;;;;0.80;0.80;;;;;;;;;;5021159;28;20056;-87
2022/12/30 06:23:16;;;;;;;0.70;0.70;;;;;;;;;;5007215;28;20049;-86
2022/12/30 06:25:44;;;;;;;0.88;0.88;;;;;;;;;;4992609;28;20420;-86
2022/12/30 06:28:12;;;;;;;0.88;0.88;;;;;;;;;;5024790;28;20049;-87
2022/12/30 06:30:41;;;;;;;0.80;0.80;;;;;;;;;;5008717;28;20544;-86
2022/12/30 06:33:09;;;;;;;0.80;0.80;;;;;;;;;;5026805;28;20108;-86
2022/12/30 06:35:37;;;;;;;1.02;1.02;;;;;;;;;;5010264;28;20095;-87
2022/12/30 06:38:05;;;;;;;0.68;0.68;;;;;;;;;;4990542;28;20042;-87
2022/12/30 06:40:33;;;;;;;2.97;0.95;;;;;;;;;;4992375;28;20046;-87
2022/12/30 06:43:02;;;;;;;0.98;0.98;;;;;;;;;;4976981;28;20325;-86
2022/12/30 06:45:30;;;;;;;1.15;1.15;;;;;;;;;;5008423;28;20049;-86
2022/12/30 06:47:58;;;;;;;0.98;0.98;;;;;;;;;;5010129;28;20049;-86
2022/12/30 06:50:26;;;;;;;0.80;0.80;;;;;;;;;;5013929;28;20053;-87
2022/12/30 06:52:54;;;;;;;1.17;1.17;;;;;;;;;;5011470;28;20057;-86
2022/12/30 06:55:21;;;;;;;1.08;0.95;;;;;;;;;;5031350;28;20049;-86
2022/12/30 06:57:50;;;;;;;1.15;1.15;;;;;;;;;;5030780;28;20053;-87
2022/12/30 07:00:18;;;;;;;8.88;1.52;;;;;;;;;;5030297;28;20471;-87
2022/12/30 07:02:46;;;;;;;1.48;1.48;;;;;;;;;;5030615;28;20050;-86
2022/12/30 07:05:14;;;;;;;0.98;0.98;;;;;;;;;;4996890;28;20057;-86
2022/12/30 07:07:42;;;;;;;1.33;1.20;;;;;;;;;;5012167;28;20518;-88
2022/12/30 07:10:10;;;;;;;1.05;1.05;;;;;;;;;;5012221;28;20049;-86
2022/12/30 07:12:38;;;;;;;1.10;1.10;;;;;;;;;;5013320;28;20463;-86
2022/12/30 07:15:06;;;;;;;0.90;0.90;;;;;;;;;;5031509;28;20060;-87
2022/12/30 07:17:34;;;;;;;0.90;0.90;;;;;;;;;;5029430;28;20045;-86
2022/12/30 07:20:03;;;;;;;1.25;1.25;;;;;;;;;;5018120;28;20115;-86
2022/12/30 07:22:31;;;;;;;3.90;0.93;;;;;;;;;;5049667;28;20591;-86
2022/12/30 07:24:59;;;;;;;1.10;1.10;;;;;;;;;;5016550;28;20045;-87
2022/12/30 07:27:27;;;;;;;0.95;0.95;;;;;;;;;;5051245;28;20506;-86
2022/12/30 07:29:55;;;;;;;1.00;1.00;;;;;;;;;;5032252;28;20041;-87
2022/12/30 07:32:23;;;;;;;2.55;1.00;;;;;;;;;;5032404;28;20037;-87
2022/12/30 07:34:51;;;;;;;1.52;1.42;;;;;;;;;;5016128;28;20052;-87
2022/12/30 07:37:19;;;;;;;1.00;1.00;;;;;;;;;;5000343;28;20054;-86
2022/12/30 07:39:47;;;;;;;1.25;1.15;;;;;;;;;;5026408;28;20053;-86
2022/12/30 07:42:15;;;;;;;5.07;1.38;;;;;;;;;;4948452;28;20053;-87
2022/12/30 07:44:43;;;;;;;1.10;1.02;;;;;;;;;;4988040;28;20410;-87
2022/12/30 07:47:11;;;;;;;0.98;0.98;;;;;;;;;;4972321;28;20057;-86
2022/12/30 07:49:40;;;;;;;2.03;1.58;;;;;;;;;;4987517;28;20601;-87
2022/12/30 07:52:08;;;;;;;1.08;1.08;;;;;;;;;;4950458;28;20051;-86
2022/12/30 07:54:36;;;;;;;1.35;1.27;;;;;;;;;;4953827;28;20057;-86
2022/12/30 07:57:04;;;;;;;1.42;1.33;;;;;;;;;;4937957;28;20043;-87
2022/12/30 07:59:33;;;;;;;2.58;1.02;;;;;;;;;;4937318;28;20525;-86
2022/12/30 08:02:06;;;;;;;1.25;1.25;;;;;;;;;;4951874;28;20050;-87
2022/12/30 08:04:34;;;;;;;1.48;1.38;;;;;;;;;;4936704;28;20050;-87
2022/12/30 08:07:52;;;;;;;1.95;1.85;;;;;;;;;;5002602;28;20057;-87
2022/12/30 08:10:52;;;;;;;1.15;1.05;;;;;;;;;;5020611;28;20041;-85
2022/12/30 08:13:42;;;;;;;3.13;1.50;;;;;;;;;;5012002;28;20049;-87
2022/12/30 08:16:35;;;;;;;5.38;1.55;;;;;;;;;;5014042;28;20579;-87
2022/12/30 08:19:43;;;;;;;2.15;2.05;;;;;;;;;;4997105;28;20157;-87
2022/12/30 08:22:12;;;;;;;2.28;2.17;;;;;;;;;;4990594;28;20069;-86
2022/12/30 08:25:12;;;;;;;1.30;1.17;;;;;;;;;;4991426;28;20049;-86
2022/12/30 08:27:40;;;;;;;6.07;1.30;;;;;;;;;;5009917;28;20509;-87
2022/12/30 08:30:08;;;;;;;2.78;2.47;;;;;;;;;;5008505;28;20417;-86
2022/12/30 08:32:36;;;;;;;2.28;1.65;;;;;;;;;;5007133;28;20699;-87
2022/12/30 08:35:09;;;;;;;2.63;1.88;;;;;;;;;;4993249;28;20041;-86
2022/12/30 08:37:40;;;;;;;2.15;1.90;;;;;;;;;;4990034;28;20042;-86
2022/12/30 08:40:08;;;;;;;2.90;1.60;;;;;;;;;;4994952;28;20049;-87
2022/12/30 08:42:36;;;;;;;2.15;1.95;;;;;;;;;;5028681;28;20056;-87
2022/12/30 08:45:07;;;;;;;2.03;1.92;;;;;;;;;;5029112;28;20550;-87
2022/12/30 08:47:36;;;;;;;1.67;1.50;;;;;;;;;;5028679;28;20504;-88
2022/12/30 08:50:04;;;;;;;2.13;1.92;;;;;;;;;;5010116;28;20492;-87
2022/12/30 08:52:36;;;;;;;1.48;1.35;;;;;;;;;;5010015;28;20041;-86
2022/12/30 08:55:04;;;;;;;1.27;1.27;;;;;;;;;;5028120;28;20045;-87
2022/12/30 08:57:32;;;;;;;1.83;1.50;;;;;;;;;;5011262;28;20539;-86
2022/12/30 09:00:00;;;;;;;2.05;1.85;;;;;;;;;;5000277;28;20136;-86
2022/12/30 09:02:30;;;;;;;1.75;1.65;;;;;;;;;;5029941;28;20048;-87
2022/12/30 09:04:58;;;;;;;1.70;1.48;;;;;;;;;;5030597;28;20052;-87
2022/12/30 09:07:30;;;;;;;1.95;1.85;;;;;;;;;;4996093;28;20064;-86
2022/12/30 09:10:18;;;;;;;1.45;1.38;;;;;;;;;;5012449;28;20049;-86
2022/12/30 09:12:46;;;;;;;1.48;1.20;;;;;;;;;;4980018;28;20053;-87
2022/12/30 09:15:14;;;;;;;1.50;1.40;;;;;;;;;;5004423;28;20045;-87
2022/12/30 09:17:42;;;;;;;1.60;1.50;;;;;;;;;;5002020;28;20056;-87
2022/12/30 09:20:11;;;;;;;1.92;1.73;;;;;;;;;;5016270;28;20050;-87
2022/12/30 09:22:50;;;;;;;1.98;1.67;;;;;;;;;;5007730;28;20512;-87
2022/12/30 09:25:18;;;;;;;1.95;1.77;;;;;;;;;;5032159;28;20049;-86
2022/12/30 09:27:46;;;;;;;1.80;1.70;;;;;;;;;;5004557;28;20052;-87
2022/12/30 09:30:14;;;;;;;1.55;1.42;;;;;;;;;;5016871;28;20492;-87
2022/12/30 09:32:41;;;;;;;1.73;1.55;;;;;;;;;;5025918;28;20509;-87
2022/12/30 09:35:10;;;;;;;2.40;2.30;;;;;;;;;;5009647;28;20057;-87
2022/12/30 09:37:38;;;;;;;1.83;1.58;;;;;;;;;;5008467;28;20045;-86
2022/12/30 09:40:07;;;;;;;1.85;1.67;;;;;;;;;;5010556;28;20060;-88
2022/12/30 09:45:26;;;;;;;2.50;1.67;;;;;;;;;;4994272;28;20061;-87
2022/12/30 09:47:57;;;;;;;1.25;1.20;;;;;;;;;;5032526;28;20048;-87
2022/12/30 09:50:44;;;;;;;0.93;0.93;;;;;;;;;;5007539;28;20741;-87
2022/12/30 09:53:17;;;;;;;1.45;1.35;;;;;;;;;;5047053;28;20044;-85
2022/12/30 09:55:45;;;;;;;;;;;;;;;;;;5031148;28;20068;-88
2022/12/30 09:58:16;;;;;;;2.55;1.40;;;;;;;;;;5030290;28;19932;-86
2022/12/30 10:00:46;;;;;;;1.50;1.10;;;;;;;;;;4996995;28;20492;-86
2022/12/30 10:03:18;;;;;;;1.05;1.05;;;;;;;;;;5029814;28;20673;-85
2022/12/30 10:06:35;;;;;;;1.20;1.10;;;;;;;;;;5029994;28;20046;-88
2022/12/30 10:09:27;;;;;;;1.50;1.40;;;;;;;;;;4996266;28;20054;-86
2022/12/30 10:11:55;;;;;;;0.95;0.95;;;;;;;;;;4962638;28;20053;-87
2022/12/30 10:14:29;;;;;;;1.58;1.35;;;;;;;;;;4993877;28;20049;-87
2022/12/30 10:17:11;;;;;;;1.70;1.60;;;;;;;;;;5003904;28;20649;-88
2022/12/30 10:19:49;;;;;;;2.25;1.15;;;;;;;;;;5033808;28;20053;-87
2022/12/30 10:22:22;;;;;;;1.60;1.20;;;;;;;;;;5032632;28;20044;-87
2022/12/30 10:24:50;;;;;;;1.40;1.30;;;;;;;;;;5019089;28;20370;-88
2022/12/30 10:27:20;;;;;;;1.15;1.10;;;;;;;;;;5051961;28;20060;-87
2022/12/30 10:29:48;;;;;;;1.88;1.42;;;;;;;;;;5050332;28;20071;-86
2022/12/30 10:32:30;;;;;;;0.80;0.80;;;;;;;;;;5016144;28;20045;-88
2022/12/30 10:35:02;;;;;;;2.25;2.05;;;;;;;;;;5008331;28;20045;-87
2022/12/30 10:37:34;;;;;;;1.60;1.50;;;;;;;;;;5030770;28;20040;-88
2022/12/30 10:40:07;;;;;;;2.53;1.50;;;;;;;;;;5032681;28;20053;-89
2022/12/30 10:43:01;;;;;;;1.10;1.00;;;;;;;;;;5013939;28;20464;-88
2022/12/30 10:45:38;;;;;;;1.35;1.17;;;;;;;;;;5024322;28;20044;-89
2022/12/30 10:48:25;;;;;;;0.95;0.95;;;;;;;;;;5013697;28;20045;-88
2022/12/30 10:50:54;;;;;;;1.10;0.90;;;;;;;;;;5023883;28;20059;-89
2022/12/30 10:53:23;;;;;;;0.90;0.90;;;;;;;;;;5031876;28;20393;-90
2022/12/30 10:55:54;;;;;;;0.95;0.80;;;;;;;;;;5018006;28;20072;-90
2022/12/30 10:58:41;;;;;;;4.40;1.70;;;;;;;;;;5018550;28;20666;-89
2022/12/30 11:01:15;;;;;;;2.35;2.25;;;;;;;;;;5017456;28;20048;-90
2022/12/30 11:03:47;;;;;;;1.88;1.83;;;;;;;;;;5034709;28;20040;-91
2022/12/30 11:06:26;;;;;;;3.75;1.17;;;;;;;;;;5045408;28;20488;-89
2022/12/30 11:08:55;;;;;;;0.90;0.90;;;;;;;;;;5031403;28;20038;-91
2022/12/30 11:14:42;;;;;;;2.25;0.88;;;;;;;;;;5015747;28;20496;-90
2022/12/30 11:14:43;;;;;;;5.15;2.53;;;;;;;;;;5031071;28;20447;-89
2022/12/30 11:17:38;;;;;;;1.42;1.30;;;;;;;;;;5016336;28;20683;-89
2022/12/30 11:20:08;;;;;;;0.93;0.93;;;;;;;;;;4987256;28;20045;-89
2022/12/30 11:22:36;;;;;;;0.80;0.80;;;;;;;;;;5032303;28;20053;-89
2022/12/30 11:25:22;;;;;;;0.82;0.80;;;;;;;;;;5032941;28;20559;-88
2022/12/30 11:27:52;;;;;;;0.80;0.80;;;;;;;;;;5033491;28;20057;-89
2022/12/30 11:30:30;;;;;;;0.80;0.80;;;;;;;;;;5049394;28;20057;-89
2022/12/30 11:33:00;;;;;;;1.67;0.90;;;;;;;;;;5016217;28;20463;-89
2022/12/30 11:35:33;;;;;;;0.63;0.63;;;;;;;;;;5048782;28;20049;-88
2022/12/30 11:38:03;;;;;;;0.60;0.60;;;;;;;;;;4945894;28;20049;-89
2022/12/30 11:40:36;;;;;;;1.20;1.20;;;;;;;;;;5029541;28;20045;-89
2022/12/30 11:43:15;;;;;;;0.75;0.68;;;;;;;;;;5012743;28;20420;-90
2022/12/30 11:45:52;;;;;;;0.90;0.90;;;;;;;;;;5028456;28;20046;-90
2022/12/30 11:48:29;;;;;;;0.50;0.50;;;;;;;;;;4986843;28;20042;-90
2022/12/30 11:51:03;;;;;;;0.60;0.60;;;;;;;;;;5013052;28;20265;-89
2022/12/30 11:53:36;;;;;;;0.77;0.77;;;;;;;;;;5010606;28;20037;-90
2022/12/30 11:56:04;;;;;;;1.20;1.10;;;;;;;;;;5029918;28;20045;-89
2022/12/30 11:58:34;;;;;;;3.80;0.90;;;;;;;;;;5029247;28;20409;-90
2022/12/30 12:01:04;;;;;;;0.77;0.70;;;;;;;;;;4996346;28;20052;-89
2022/12/30 12:03:33;;;;;;;0.80;0.80;;;;;;;;;;5013014;28;20045;-90
2022/12/30 12:06:07;;;;;;;1.38;0.70;;;;;;;;;;5021244;28;20509;-91
2022/12/30 12:08:55;;;;;;;0.57;0.57;;;;;;;;;;5009101;28;20057;-90
2022/12/30 12:11:52;;;;;;;0.60;0.60;;;;;;;;;;5010147;28;20050;-89
2022/12/30 12:14:33;;;;;;;1.50;0.85;;;;;;;;;;5006752;28;20038;-90
2022/12/30 12:17:01;;;;;;;0.70;0.70;;;;;;;;;;5005180;28;20420;-89
2022/12/30 12:19:48;;;;;;;0.85;0.80;;;;;;;;;;4993899;28;20418;-90
2022/12/30 12:22:26;;;;;;;0.82;0.82;;;;;;;;;;5013956;28;20052;-89
2022/12/30 12:24:57;;;;;;;0.80;0.80;;;;;;;;;;5049166;28;20041;-89
2022/12/30 12:27:26;;;;;;;1.10;1.10;;;;;;;;;;5032798;28;20060;-89
2022/12/30 12:29:56;;;;;;;1.08;1.00;;;;;;;;;;5048442;28;20410;-90
2022/12/30 12:32:34;;;;;;;0.97;0.87;;;;;;;;;;5048099;28;20563;-89
2022/12/30 12:35:30;;;;;;;0.60;0.60;;;;;;;;;;5032916;28;20715;-90
2022/12/30 12:38:17;;;;;;;2.13;0.93;;;;;;;;;;5010346;28;20053;-90
2022/12/30 12:41:04;;;;;;;0.70;0.70;;;;;;;;;;5028117;28;20041;-89
2022/12/30 12:43:41;;;;;;;0.82;0.82;;;;;;;;;;5012174;28;20049;-89
2022/12/30 12:46:15;;;;;;;0.95;0.90;;;;;;;;;;5028505;28;20034;-89
2022/12/30 12:48:44;;;;;;;0.70;0.70;;;;;;;;;;4991405;28;20042;-91
2022/12/30 12:51:21;;;;;;;0.80;0.80;;;;;;;;;;5026298;28;20056;-91
2022/12/30 12:54:00;;;;;;;0.60;0.60;;;;;;;;;;5013787;28;20288;-90
2022/12/30 12:56:58;;;;;;;2.15;1.33;;;;;;;;;;4988825;28;20053;-90
2022/12/30 12:59:29;;;;;;;0.98;0.85;;;;;;;;;;5003715;28;20052;-90
2022/12/30 13:02:11;;;;;;;1.05;1.05;;;;;;;;;;5004849;28;20061;-91
2022/12/30 13:05:07;;;;;;;1.48;0.98;;;;;;;;;;5028186;28;20053;-91
2022/12/30 13:07:53;;;;;;;0.80;0.80;;;;;;;;;;5025754;28;20424;-91
2022/12/30 13:10:48;;;;;;;0.60;0.60;;;;;;;;;;5040931;28;20060;-90
2022/12/30 13:13:41;;;;;;;0.77;0.77;;;;;;;;;;5014674;28;20668;-90
2022/12/30 13:16:16;;;;;;;1.23;1.10;;;;;;;;;;5017864;28;20064;-90
2022/12/30 13:18:46;;;;;;;1.13;1.02;;;;;;;;;;4995474;28;20389;-90
2022/12/30 13:21:18;;;;;;;0.77;0.70;;;;;;;;;;5025692;28;20053;-90
2022/12/30 13:23:48;;;;;;;0.90;0.90;;;;;;;;;;5030019;28;20056;-90
2022/12/30 13:26:16;;;;;;;0.70;0.70;;;;;;;;;;5030517;28;20389;-90
2022/12/30 13:28:47;;;;;;;0.77;0.77;;;;;;;;;;5028156;28;20059;-91
2022/12/30 13:31:34;;;;;;;1.42;0.85;;;;;;;;;;4975005;28;20054;-91
2022/12/30 13:34:20;;;;;;;0.93;0.93;;;;;;;;;;5008719;28;20050;-91
2022/12/30 13:36:54;;;;;;;0.85;0.85;;;;;;;;;;5019907;28;20417;-91
2022/12/30 13:39:23;;;;;;;0.80;0.80;;;;;;;;;;5011361;28;20057;-91
2022/12/30 13:41:59;;;;;;;2.45;0.88;;;;;;;;;;5027265;28;20041;-91
2022/12/30 13:44:31;;;;;;;1.58;1.15;;;;;;;;;;5011497;28;20386;-90
2022/12/30 13:47:00;;;;;;;1.20;1.10;;;;;;;;;;5011691;28;20053;-90
2022/12/30 13:49:35;;;;;;;1.67;1.58;;;;;;;;;;5028529;28;20046;-90
2022/12/30 13:52:06;;;;;;;1.25;0.75;;;;;;;;;;5026535;28;20095;-89
2022/12/30 13:54:36;;;;;;;0.93;0.93;;;;;;;;;;5011667;28;20405;-90
2022/12/30 13:57:04;;;;;;;3.05;1.55;;;;;;;;;;5010645;28;20050;-91
2022/12/30 13:59:33;;;;;;;2.22;2.13;;;;;;;;;;4995902;28;20412;-90
2022/12/30 14:02:10;;;;;;;0.82;0.82;;;;;;;;;;5011040;28;20037;-90
2022/12/30 14:04:46;;;;;;;1.25;1.23;;;;;;;;;;5010438;28;20052;-92
2022/12/30 14:07:35;;;;;;;1.10;1.10;;;;;;;;;;4994606;28;20049;-92
2022/12/30 14:10:16;;;;;;;2.22;1.38;;;;;;;;;;5011207;28;20747;-92
2022/12/30 14:12:45;;;;;;;1.35;1.25;;;;;;;;;;5010475;28;20416;-91
2022/12/30 14:15:31;;;;;;;1.13;0.95;;;;;;;;;;4995615;28;20054;-92
2022/12/30 14:18:23;;;;;;;1.05;0.98;;;;;;;;;;4996268;28;20513;-92
2022/12/30 14:20:55;;;;;;;1.60;1.50;;;;;;;;;;5022499;28;20048;-92
2022/12/30 14:23:37;;;;;;;9.13;1.40;;;;;;;;;;5029519;28;20060;-91
2022/12/30 14:26:28;;;;;;;1.63;1.30;;;;;;;;;;5030061;28;20052;-88
2022/12/30 14:29:04;;;;;;;4.57;1.85;;;;;;;;;;5014747;28;20060;-91
2022/12/30 14:31:33;;;;;;;3.13;1.60;;;;;;;;;;5030773;28;20053;-92
2022/12/30 14:34:03;;;;;;;1.40;1.30;;;;;;;;;;5029287;28;20045;-89
2022/12/30 14:36:36;;;;;;;1.50;1.40;;;;;;;;;;5017576;28;20049;-89
2022/12/30 14:39:15;;;;;;;1.30;1.20;;;;;;;;;;4999374;28;20045;-89
2022/12/30 14:41:45;;;;;;;1.50;1.40;;;;;;;;;;5009670;28;20270;-89
2022/12/30 14:44:13;;;;;;;1.20;1.10;;;;;;;;;;5027266;28;20053;-89
2022/12/30 14:46:42;;;;;;;2.00;1.52;;;;;;;;;;4994157;28;20050;-88
2022/12/30 14:49:32;;;;;;;1.73;1.42;;;;;;;;;;5009376;28;20045;-89
2022/12/30 14:52:05;;;;;;;2.85;1.75;;;;;;;;;;5024370;28;20057;-90
2022/12/30 14:54:39;;;;;;;1.38;1.20;;;;;;;;;;5029633;28;20057;-89
2022/12/30 14:57:07;;;;;;;;;;;;;;;;;;5031731;28;20048;-90
2022/12/30 14:59:44;;;;;;;1.48;1.38;;;;;;;;;;5031476;28;19925;-89
2022/12/30 15:02:26;;;;;;;1.98;1.77;;;;;;;;;;5012980;28;20476;-90
2022/12/30 15:05:07;;;;;;;2.28;2.08;;;;;;;;;;5013136;28;20056;-89
2022/12/30 15:07:35;;;;;;;1.55;1.30;;;;;;;;;;4992491;28;20053;-88
2022/12/30 15:10:05;;;;;;;2.58;1.80;;;;;;;;;;4961840;28;20053;-86
2022/12/30 15:12:36;;;;;;;2.22;2.03;;;;;;;;;;4977165;28;20056;-88
2022/12/30 15:15:14;;;;;;;2.00;1.88;;;;;;;;;;4994784;28;20449;-88
2022/12/30 15:17:46;;;;;;;2.63;2.42;;;;;;;;;;4958873;28;20097;-89
2022/12/30 15:20:29;;;;;;;1.73;1.63;;;;;;;;;;4992346;28;20053;-88
2022/12/30 15:23:15;;;;;;;1.95;1.85;;;;;;;;;;4976781;28;20050;-89
2022/12/30 15:26:02;;;;;;;1.30;1.30;;;;;;;;;;5010003;28;20045;-89
2022/12/30 15:28:32;;;;;;;2.17;2.08;;;;;;;;;;4961220;28;20053;-88
2022/12/30 15:31:01;;;;;;;3.15;2.95;;;;;;;;;;4977349;28;20049;-89
2022/12/30 15:33:29;;;;;;;3.40;3.20;;;;;;;;;;4961437;28;20048;-89
2022/12/30 15:35:57;;;;;;;2.17;1.98;;;;;;;;;;4979016;28;20041;-88
2022/12/30 15:38:29;;;;;;;2.08;1.90;;;;;;;;;;4980721;28;20049;-88
2022/12/30 15:40:57;;;;;;;;;;;;;;;;;;5030795;28;20500;-90
2022/12/30 15:43:25;;;;;;;2.47;2.28;;;;;;;;;;4997491;28;20324;-89
2022/12/30 15:46:00;;;;;;;7.10;2.78;;;;;;;;;;4996779;28;20057;-88
2022/12/30 15:52:21;;;;;;;2.88;2.67;;;;;;;;;;6018940;23;20382;-88
2022/12/30 15:54:57;;;;;;;3.00;2.65;;;;;;;;;;4920286;28;20058;-88
2022/12/30 15:57:31;;;;;;;4.40;2.55;;;;;;;;;;4935213;28;20051;-88
2022/12/30 16:00:01;;;;;;;2.78;2.25;;;;;;;;;;4934820;28;20462;-88
2022/12/30 16:02:42;;;;;;;2.72;2.17;;;;;;;;;;4951169;29;20055;-87
2022/12/30 16:05:26;;;;;;;2.58;2.38;;;;;;;;;;4948393;28;20516;-87
2022/12/30 16:08:13;;;;;;;2.42;1.95;;;;;;;;;;4927542;28;20050;-88
2022/12/30 16:10:44;;;;;;;2.45;2.25;;;;;;;;;;4948193;28;20058;-88
2022/12/30 16:13:15;;;;;;;;;;;;;;;;;;4950770;28;20059;-88
2022/12/30 16:15:43;;;;;;;2.33;2.13;;;;;;;;;;4952229;28;19922;-88
2022/12/30 16:18:17;;;;;;;3.33;2.33;;;;;;;;;;4962594;28;20734;-88
2022/12/30 16:20:51;;;;;;;4.40;2.53;;;;;;;;;;4961966;28;20047;-88